Getzville 2E NY

43° 01' 25"N, 78° 44' 55"W, Elevation 589 ft.
Eastern Time

Hourly observations for the last 72 hours

Date Time Temperature (°F) Humi-
dity

(%)
Wind
(mph)
Pressure Rain (in) Sun
(W/m2)
ET
(in)
Air Dew 6 Hour 1 Hr 3 Hr 6 Hr Day
Alt
(in)
Sea
Level

(mb)
Max Min
3 00:00 42.3 27.3 55 NNW 3 G 9 29.96 1014.6 0.00 0 0.135
2 23:00 43.1 26.7 52 NNW 4 G 12 29.96 1014.5 0.00 0 0.133
2 22:00 43.5 26.6 51 NNW 2 G 8 29.96 1014.7 0.00 0 0.131
2 21:00 44.2 23.7 44 NW 1 G 5 29.96 1014.7 0.00 0 0.129
2 20:00 47.7 22.7 57.2 47.7 37 NNW 0 G 5 29.94 1014.1 0.00 0 0.127
2 19:00 50.2 34.2 54 WNW 3 G 7 29.94 1014.0 0.00 32 0.125
2 18:00 51.4 35.8 55 WSW 3 G 10 29.94 1013.9 0.00 76 0.121
2 17:00 56.2 31.6 39 WNW 8 G 15 29.93 1013.7 0.00 139 0.109
2 16:00 56.1 32.1 40 NW 5 G 16 29.95 1014.2 0.00 700 0.092
2 15:00 55.1 35.8 48 NW 6 G 13 29.97 1014.9 0.00 940 0.072
2 14:00 54.2 36.0 54.5 37.7 50 N 3 G 16 29.99 1015.5 0.00 1048 0.051
2 13:00 51.9 34.3 51 N 3 G 11 30.01 1016.3 0.00 1049 0.031
2 12:00 49.6 33.2 53 NW 4 G 10 30.02 1016.6 0.00 990 0.013
2 11:00 46.1 32.6 59 NNW 3 G 13 30.02 1016.6 0.00 828 0.008
2 10:00 42.4 32.6 68 NNW 4 G 9 30.02 1016.7 0.00 118 0.006
2 09:00 40.6 31.2 69 N 3 G 6 30.01 1016.4 0.00 95 0.004
2 08:00 37.7 30.8 37.7 33.1 76 NW 2 G 5 30.01 1016.2 0.00 114 0.003
2 07:00 35.3 28.8 77 W 1 G 2 29.98 1015.1 0.00 7 0.003
2 06:00 36.5 28.7 73 WNW 1 G 4 29.96 1014.6 0.00 0 0.002
2 05:00 34.4 28.6 79 WNW 2 G 6 29.95 1014.4 0.00 0 0.002
2 04:00 34.4 28.6 79 Calm 29.95 1014.3 0.00 0 0.002
2 03:00 34.7 28.9 79 W 0 G 2 29.95 1014.4 0.00 0 0.002
2 02:00 36.1 29.3 43.8 36.1 76 W 0 G 2 29.96 1014.5 0.00 0 0.001
2 01:00 39.9 29.5 66 W 3 G 8 29.95 1014.4 0.00 0 0.000
2 00:00 41.1 30.6 66 W 3 G 9 29.96 1014.5 0.00 0 0.123
1 23:00 41.0 30.9 67 W 3 G 7 29.96 1014.7 0.00 0 0.122
1 22:00 40.9 30.8 67 W 1 G 9 29.96 1014.7 0.00 0 0.121
1 21:00 39.3 28.1 64 Calm 29.96 1014.6 0.00 0 0.120
1 20:00 43.8 27.3 50.8 43.8 52 Calm 29.94 1014.0 0.00 0 0.120
1 19:00 47.1 26.3 44 ENE 3 G 9 29.93 1013.7 0.00 30 0.118
1 18:00 48.3 27.4 44 NNE 2 G 8 29.94 1013.9 0.00 54 0.114
1 17:00 50.1 29.0 44 NNE 2 G 7 29.94 1013.9 0.00 315 0.104
1 16:00 49.6 29.7 46 ENE 4 G 13 29.95 1014.2 0.00 650 0.090
1 15:00 49.7 30.3 47 N 2 G 10 29.95 1014.2 0.00 953 0.071
1 14:00 47.0 29.8 47.4 35.1 51 ESE 6 G 15 29.96 1014.6 0.00 1039 0.052
1 13:00 46.3 30.1 53 ENE 6 G 15 29.97 1014.9 0.00 1060 0.033
1 12:00 44.8 30.5 57 NE 6 G 14 29.98 1015.2 0.00 984 0.016
1 11:00 41.1 29.5 63 E 7 G 15 29.98 1015.1 0.00 292 0.011
1 10:00 38.8 27.7 64 ENE 5 G 15 29.97 1014.9 0.00 144 0.009
1 09:00 36.8 27.2 68 ENE 5 G 14 29.97 1014.8 0.00 93 0.007
1 08:00 35.1 27.7 39.1 31.7 74 ENE 5 G 8 29.95 1014.4 0.00 67 0.006
1 07:00 31.8 26.6 81 ENE 1 G 3 29.93 1013.7 0.00 7 0.006
1 06:00 34.4 27.9 77 NE 3 G 6 29.92 1013.2 0.00 0 0.005
1 05:00 35.6 29.1 77 NE 1 G 5 29.92 1013.1 0.00 0 0.004
1 04:00 36.4 29.6 76 ENE 4 G 8 29.92 1013.3 0.00 0 0.003
1 03:00 37.5 30.3 75 E 3 G 12 29.93 1013.5 0.00 0 0.002
1 02:00 39.1 32.2 40.7 39.1 76 ENE 3 G 10 29.94 1013.8 0.00 0 0.001
1 01:00 39.8 33.8 79 ENE 4 G 12 29.94 1014.0 0.00 0 0.000
1 00:00 40.3 35.9 84 E 5 G 10 29.95 1014.4 0.02 0 0.035
31 23:00 40.6 36.4 85 ENE 6 G 10 29.96 1014.7 0.02 0 0.034
31 22:00 40.4 36.8 87 E 4 G 8 29.98 1015.1 0.02 0 0.034
31 21:00 40.2 36.9 88 ENE 5 G 9 29.98 1015.4 0.02 0 0.034
31 20:00 40.2 37.2 46.1 40.2 89 ENE 7 G 16 29.98 1015.2 0.02 0 0.033
31 19:00 41.6 38.3 88 ENE 7 G 14 29.97 1014.9 0.02 18 0.032
31 18:00 42.3 39.0 88 E 7 G 12 29.96 1014.7 0.02 62 0.030
31 17:00 43.6 40.0 87 ENE 9 G 15 29.95 1014.2 0.02 141 0.027
31 16:00 45.2 40.3 83 ENE 7 G 11 29.95 1014.4 0.02 113 0.024
31 15:00 45.5 40.6 83 ENE 3 G 12 29.97 1015.0 0.02 255 0.019
31 14:00 46.0 41.1 46.1 39.9 83 NE 4 G 9 30.00 1015.8 0.01 0.02 128 0.014
31 13:00 45.0 40.5 84 E 4 G 10 30.00 1015.8 0.02 446 0.008
31 12:00 42.8 39.8 89 E 4 G 8 30.00 1016.1 0.02 132 0.004
31 11:00 41.3 39.4 93 E 3 G 7 30.01 1016.3 0.01 0.01 0.02 218 0.002
31 10:00 40.8 38.9 93 E 3 G 7 30.02 1016.7 0.01 49 0.001
31 09:00 40.6 38.7 93 NE 1 G 2 30.02 1016.6 0.01 62 0.000
31 08:00 39.9 38.0 40.0 39.1 93 NNE 1 G 3 30.02 1016.6 0.01 0.01 23 0.000
31 07:00 39.5 37.6 93 WNW 0 G 1 30.02 1016.6 0.01 0 0.000
31 06:00 39.3 37.4 93 WNW 0 G 3 30.00 1016.0 0.01 0 0.000
31 05:00 39.2 37.3 93 WNW 1 G 3 29.98 1015.4 0.01 0.01 0.01 0 0.000
31 04:00 39.1 37.2 93 W 1 G 4 29.99 1015.5 0.00 0 0.000
31 03:00 39.3 37.2 92 W 0 G 4 29.99 1015.6 0.00 0 0.000
31 02:00 39.5 37.6 40.2 39.5 93 WNW 1 G 7 29.99 1015.7 0.05 0.00 0 0.000
31 01:00 40.0 38.1 93 WNW 0 G 4 29.98 1015.4 0.00 0 0.000

Data generated by WxSolution Version 1.9.1.5, Build 2018.05.20.